Time;durP1;ratioP1;P1;durP2;ratioP2;P2;SDS_P1;SDS_P2;PMS_P1;PMS_P2;Temp;Humidity;BMP_temperature;BMP_pressure;BME280_temperature;BME280_humidity;BME280_pressure;Samples;Min_cycle;Max_cycle;Signal;HPM_P1;HPM_P2
2022/05/22 00:02:03;;;;;;;9.70;2.80;;;;;;;12.75;48.19;98641.32;106064;1274;96412;-65
2022/05/22 00:04:32;;;;;;;7.70;2.60;;;;;;;12.70;48.26;98637.00;106101;1274;108317;-66
2022/05/22 00:06:59;;;;;;;4.10;2.60;;;;;;;12.66;48.39;98633.46;106186;1274;94344;-66
2022/05/22 00:09:28;;;;;;;10.00;2.80;;;;;;;12.62;48.58;98632.53;106110;1274;96540;-66
2022/05/22 00:11:58;;;;;;;7.00;3.60;;;;;;;12.62;48.66;98629.89;106088;1274;110660;-66
2022/05/22 00:14:26;;;;;;;6.60;3.00;;;;;;;12.61;48.72;98628.90;106125;1274;96597;-66
2022/05/22 00:16:55;;;;;;;7.40;3.20;;;;;;;12.58;48.94;98628.97;106047;1274;108045;-66
2022/05/22 00:19:27;;;;;;;7.50;3.20;;;;;;;12.57;48.98;98623.06;106145;1273;94327;-64
2022/05/22 00:21:56;;;;;;;6.40;2.80;;;;;;;12.53;48.88;98622.69;106205;1274;96495;-65
2022/05/22 00:24:28;;;;;;;4.40;2.70;;;;;;;12.47;49.08;98618.30;106082;1274;110577;-67
2022/05/22 00:27:02;;;;;;;9.00;3.40;;;;;;;12.44;49.31;98616.54;106152;1274;94989;-65
2022/05/22 00:29:31;;;;;;;10.30;3.70;;;;;;;12.42;49.38;98616.48;106219;1273;107712;-65
2022/05/22 00:31:59;;;;;;;4.80;2.90;;;;;;;12.40;49.60;98617.90;106119;1274;94269;-65
2022/05/22 00:34:30;;;;;;;7.20;3.30;;;;;;;12.32;49.50;98617.14;106070;1274;96535;-66
2022/05/22 00:36:59;;;;;;;8.20;3.60;;;;;;;12.28;49.70;98617.67;106038;1272;111377;-65
2022/05/22 00:39:27;;;;;;;6.00;3.30;;;;;;;12.26;49.76;98616.97;106021;1274;94323;-65
2022/05/22 00:41:57;;;;;;;7.70;3.20;;;;;;;12.25;49.76;98616.56;106026;1274;108097;-65
2022/05/22 00:44:26;;;;;;;10.30;3.20;;;;;;;12.18;49.98;98615.73;106065;1274;96635;-67
2022/05/22 00:46:54;;;;;;;12.00;3.30;;;;;;;12.16;49.91;98618.92;106058;1274;97295;-65
2022/05/22 00:49:31;;;;;;;10.00;3.40;;;;;;;12.13;50.09;98611.33;105997;1273;110627;-65
2022/05/22 00:52:14;;;;;;;5.20;3.20;;;;;;;12.10;50.11;98613.38;106027;1274;94964;-65
2022/05/22 00:54:47;;;;;;;10.70;3.30;;;;;;;12.07;50.27;98615.44;106081;1274;108359;-66
2022/05/22 00:57:34;;;;;;;5.80;3.20;;;;;;;12.02;50.30;98619.91;106137;1274;96586;-65
2022/05/22 01:00:09;;;;;;;7.70;3.70;;;;;;;11.99;50.49;98616.96;106083;1274;96590;-65
2022/05/22 01:05:24;;;;;;;6.70;3.00;;;;;;;11.96;50.76;98615.08;106171;1274;96505;-66
2022/05/22 01:07:53;;;;;;;7.10;3.40;;;;;;;11.94;50.73;98609.63;106129;1274;108384;-66
2022/05/22 01:10:21;;;;;;;6.30;3.10;;;;;;;11.91;50.94;98608.02;106056;1274;96567;-66
2022/05/22 01:12:49;;;;;;;6.00;3.00;;;;;;;11.90;50.80;98605.79;106232;1274;94247;-65
2022/05/22 01:15:17;;;;;;;7.10;2.90;;;;;;;11.87;51.13;98606.92;106193;1274;110611;-66
2022/05/22 01:17:47;;;;;;;6.20;2.90;;;;;;;11.86;51.16;98606.71;106132;1274;96598;-70
2022/05/22 01:20:16;;;;;;;6.50;3.00;;;;;;;11.87;51.33;98605.73;106130;1274;107471;-66
2022/05/22 01:22:45;;;;;;;5.30;2.70;;;;;;;11.86;51.34;98603.27;106150;1274;98312;-65
2022/05/22 01:25:13;;;;;;;5.10;2.90;;;;;;;11.85;51.51;98600.00;106114;1274;96472;-66
2022/05/22 01:27:43;;;;;;;8.00;3.50;;;;;;;11.84;51.60;98603.84;106134;1273;112446;-65
2022/05/22 01:30:26;;;;;;;8.70;3.30;;;;;;;11.83;51.62;98605.01;106125;1274;96529;-66
2022/05/22 01:32:55;;;;;;;8.70;2.90;;;;;;;11.83;51.80;98605.83;106150;1274;107505;-66
2022/05/22 01:35:27;;;;;;;13.40;3.90;;;;;;;11.85;51.91;98601.91;106154;1271;96414;-65
2022/05/22 01:37:57;;;;;;;10.00;3.40;;;;;;;11.88;52.04;98605.58;106137;1274;96545;-66
2022/05/22 01:40:26;;;;;;;11.80;3.40;;;;;;;11.90;51.91;98594.98;106177;1273;110067;-64
2022/05/22 01:42:55;;;;;;;8.60;2.90;;;;;;;11.90;52.08;98593.34;106170;1274;94909;-65
2022/05/22 01:45:27;;;;;;;5.60;3.10;;;;;;;11.91;52.17;98589.55;106134;1273;108515;-66
2022/05/22 01:47:56;;;;;;;7.90;3.20;;;;;;;11.93;52.26;98590.83;106097;1274;95051;-66
2022/05/22 01:50:26;;;;;;;10.30;3.00;;;;;;;11.92;52.19;98589.77;106057;1274;94292;-65
2022/05/22 01:52:54;;;;;;;7.00;3.30;;;;;;;11.90;52.44;98593.52;106044;1274;110547;-65
2022/05/22 01:55:23;;;;;;;7.70;2.70;;;;;;;11.87;52.46;98594.83;106112;1274;96638;-65
2022/05/22 01:57:52;;;;;;;7.50;3.30;;;;;;;11.87;52.48;98595.94;106193;1273;107575;-64
2022/05/22 02:00:23;;;;;;;8.20;3.00;;;;;;;11.84;52.54;98595.80;106081;1274;99174;-66
2022/05/22 02:02:57;;;;;;;6.90;3.20;;;;;;;11.84;52.62;98598.70;106135;1274;96606;-65
2022/05/22 02:05:26;;;;;;;6.40;3.10;;;;;;;11.83;52.78;98599.63;106127;1274;109744;-65
2022/05/22 02:10:44;;;;;;;6.60;2.80;;;;;;;11.81;52.94;98608.19;106127;1274;108373;-66
2022/05/22 02:13:16;;;;;;;7.30;3.00;;;;;;;11.77;52.85;98607.81;106036;1274;96588;-64
2022/05/22 02:15:45;;;;;;;10.10;3.20;;;;;;;11.72;53.03;98606.07;106113;1274;94725;-67
2022/05/22 02:18:15;;;;;;;7.10;3.30;;;;;;;11.68;53.09;98604.25;106020;1274;110986;-67
2022/05/22 02:20:47;;;;;;;10.10;3.80;;;;;;;11.67;53.26;98601.75;106059;1273;96297;-67
2022/05/22 02:23:18;;;;;;;8.60;3.30;;;;;;;11.68;53.30;98597.40;106067;1274;107739;-66
2022/05/22 02:25:52;;;;;;;8.80;3.50;;;;;;;11.66;53.27;98594.31;106054;1274;96603;-67
2022/05/22 02:28:25;;;;;;;6.50;3.40;;;;;;;11.63;53.38;98589.44;106024;1274;96696;-66
2022/05/22 02:31:00;;;;;;;5.30;2.80;;;;;;;11.59;53.42;98585.50;106052;1274;109983;-66
2022/05/22 02:33:28;;;;;;;9.90;3.70;;;;;;;11.57;53.43;98585.12;106173;1274;96565;-66
2022/05/22 02:35:56;;;;;;;5.50;3.10;;;;;;;11.56;53.67;98595.17;106192;1274;108385;-66
2022/05/22 02:38:24;;;;;;;8.70;4.00;;;;;;;11.58;53.88;98596.28;106133;1273;96495;-66
2022/05/22 02:40:54;;;;;;;8.10;3.60;;;;;;;11.58;53.82;98596.62;106188;1274;96528;-67
2022/05/22 02:43:22;;;;;;;6.80;3.20;;;;;;;11.58;54.03;98588.80;106166;1274;110543;-66
2022/05/22 02:45:54;;;;;;;9.50;4.10;;;;;;;11.59;53.98;98590.83;106192;1274;96597;-67
2022/05/22 02:48:21;;;;;;;7.90;3.60;;;;;;;11.58;54.20;98588.63;106067;1274;109664;-67
2022/05/22 02:50:51;;;;;;;8.10;3.30;;;;;;;11.59;54.18;98585.66;106155;1274;96642;-69
2022/05/22 02:53:18;;;;;;;7.70;3.30;;;;;;;11.60;54.06;98588.78;106127;1274;94237;-66
2022/05/22 02:55:47;;;;;;;8.80;3.40;;;;;;;11.61;54.37;98586.92;106149;1274;110622;-66
2022/05/22 02:58:15;;;;;;;6.60;3.40;;;;;;;11.59;54.34;98586.92;106164;1273;96529;-67
2022/05/22 03:00:43;;;;;;;6.00;3.00;;;;;;;11.57;54.32;98586.73;106159;1274;108042;-64
2022/05/22 03:03:12;;;;;;;9.80;4.30;;;;;;;11.56;54.32;98591.64;106200;1274;96558;-66
2022/05/22 03:08:34;;;;;;;5.90;2.80;;;;;;;11.54;54.65;98601.35;106075;1274;109661;-66
2022/05/22 03:11:06;;;;;;;7.00;3.00;;;;;;;11.54;54.45;98606.88;106079;1274;97084;-66
2022/05/22 03:13:35;;;;;;;8.30;3.40;;;;;;;11.51;54.64;98606.07;106197;1274;107733;-65
2022/05/22 03:16:05;;;;;;;5.50;2.90;;;;;;;11.52;54.73;98599.45;106081;1274;98149;-65
2022/05/22 03:18:34;;;;;;;7.80;3.00;;;;;;;11.49;54.71;98599.96;106140;1274;95694;-64
2022/05/22 03:21:04;;;;;;;7.40;2.80;;;;;;;11.46;54.74;98600.25;106184;1274;110341;-65
2022/05/22 03:23:37;;;;;;;9.40;2.80;;;;;;;11.43;54.79;98600.31;106166;1274;94241;-65
2022/05/22 03:26:06;;;;;;;6.60;2.70;;;;;;;11.40;54.69;98599.13;106030;1274;107542;-64
2022/05/22 03:28:34;;;;;;;7.40;2.90;;;;;;;11.39;54.97;98597.15;106035;1274;96484;-64
2022/05/22 03:31:04;;;;;;;8.50;3.50;;;;;;;11.38;54.95;98597.71;106056;1274;94334;-65
2022/05/22 03:33:33;;;;;;;5.90;3.20;;;;;;;11.40;55.22;98598.06;106018;1273;110749;-66
2022/05/22 03:36:05;;;;;;;7.10;3.20;;;;;;;11.46;55.14;98596.70;106112;1274;94980;-65
2022/05/22 03:38:33;;;;;;;9.00;3.80;;;;;;;11.52;55.37;98600.16;106110;1274;108786;-64
2022/05/22 03:41:02;;;;;;;8.40;3.40;;;;;;;11.58;55.49;98599.98;106031;1274;95035;-66
2022/05/22 03:43:30;;;;;;;10.30;3.30;;;;;;;11.61;55.41;98606.27;104860;1274;1645648;-65
2022/05/22 03:45:58;;;;;;;11.80;4.10;;;;;;;11.61;55.52;98602.86;106180;1274;94872;-65
2022/05/22 03:48:27;;;;;;;7.10;3.40;;;;;;;11.62;55.67;98600.11;106159;1274;96628;-64
2022/05/22 03:50:55;;;;;;;9.50;3.70;;;;;;;11.64;55.50;98609.63;106118;1274;108159;-65
2022/05/22 03:53:26;;;;;;;9.20;3.30;;;;;;;11.65;55.73;98608.77;106126;1274;96648;-65
2022/05/22 03:55:55;;;;;;;7.00;3.50;;;;;;;11.67;55.75;98608.31;106182;1274;94341;-65
2022/05/22 03:58:24;;;;;;;7.70;3.60;;;;;;;11.68;55.85;98607.45;106062;1274;110878;-66
2022/05/22 04:00:53;;;;;;;7.40;3.40;;;;;;;11.70;55.94;98604.31;106081;1274;96583;-67
2022/05/22 04:03:21;;;;;;;8.90;3.60;;;;;;;11.72;55.94;98598.64;106066;1274;108323;-65
2022/05/22 04:05:51;;;;;;;10.70;3.50;;;;;;;11.75;56.01;98605.64;106097;1274;96406;-63
2022/05/22 04:08:19;;;;;;;9.50;3.40;;;;;;;11.73;55.85;98609.39;106088;1274;95291;-67
2022/05/22 04:10:47;;;;;;;9.20;3.40;;;;;;;11.73;56.20;98614.70;106148;1274;110576;-65
2022/05/22 04:13:16;;;;;;;8.90;3.50;;;;;;;11.74;56.05;98614.77;106060;1274;96513;-67
2022/05/22 04:15:46;;;;;;;8.40;3.00;;;;;;;11.73;55.96;98614.33;106066;1274;108276;-65
2022/05/22 04:18:18;;;;;;;8.00;3.50;;;;;;;11.76;56.10;98614.96;106104;1274;94275;-65
2022/05/22 04:20:45;;;;;;;9.90;3.60;;;;;;;11.80;56.12;98617.01;106180;1274;94260;-66
2022/05/22 04:26:03;;;;;;;10.90;3.90;;;;;;;11.87;56.23;98626.35;106089;1274;96466;-66
2022/05/22 04:28:33;;;;;;;7.90;3.40;;;;;;;11.85;56.28;98626.13;106131;1273;107767;-66
2022/05/22 04:31:03;;;;;;;8.50;3.40;;;;;;;11.85;56.37;98625.90;106115;1274;97644;-66
2022/05/22 04:33:33;;;;;;;9.50;3.50;;;;;;;11.86;56.36;98626.77;106155;1274;96516;-65
2022/05/22 04:36:04;;;;;;;8.20;3.30;;;;;;;11.80;56.48;98615.94;106191;1274;110004;-66
2022/05/22 04:38:32;;;;;;;11.20;3.90;;;;;;;11.77;56.34;98615.83;106139;1274;96532;-67
2022/05/22 04:41:03;;;;;;;10.00;3.90;;;;;;;11.76;56.52;98611.23;106089;1274;108405;-66
2022/05/22 04:43:33;;;;;;;10.20;3.90;;;;;;;11.77;56.82;98611.00;106159;1274;96500;-66
2022/05/22 04:46:07;;;;;;;6.70;3.50;;;;;;;11.76;56.62;98606.48;106097;1273;96495;-68
2022/05/22 04:48:36;;;;;;;13.20;3.40;;;;;;;11.75;56.46;98609.01;106154;1273;109995;-70
2022/05/22 04:51:08;;;;;;;8.30;3.50;;;;;;;11.73;56.63;98598.52;106167;1274;94987;-68
2022/05/22 04:53:37;;;;;;;6.20;3.70;;;;;;;11.75;56.72;98599.95;106164;1274;107809;-70
2022/05/22 04:56:05;;;;;;;8.40;3.30;;;;;;;11.77;56.74;98599.94;106113;1274;96557;-67
2022/05/22 04:58:35;;;;;;;9.70;3.60;;;;;;;11.79;56.84;98601.20;106152;1274;96615;-69
2022/05/22 05:01:07;;;;;;;10.50;4.10;;;;;;;11.81;56.73;98601.19;106063;1274;110066;-70
2022/05/22 05:03:36;;;;;;;10.20;3.60;;;;;;;11.86;56.85;98602.54;106017;1274;97170;-66
2022/05/22 05:06:06;;;;;;;11.80;3.50;;;;;;;11.89;56.79;98600.36;106110;1273;107774;-65
2022/05/22 05:08:34;;;;;;;9.60;3.60;;;;;;;11.88;56.87;98604.35;106050;1274;96600;-69
2022/05/22 05:11:05;;;;;;;9.40;3.50;;;;;;;11.90;56.94;98605.83;106092;1274;96507;-68
2022/05/22 05:13:33;;;;;;;7.50;3.20;;;;;;;11.92;57.12;98598.20;106087;1274;110652;-67
2022/05/22 05:16:05;;;;;;;10.50;3.00;;;;;;;11.97;57.12;98594.08;106013;1274;96549;-66
2022/05/22 05:18:36;;;;;;;10.60;3.10;;;;;;;12.02;57.03;98597.71;106101;1274;107070;-65
2022/05/22 05:21:11;;;;;;;10.70;3.20;;;;;;;12.06;57.20;98599.98;106109;1274;96546;-65
2022/05/22 05:23:42;;;;;;;9.10;3.20;;;;;;;12.12;57.28;98603.80;106076;1274;96507;-66
2022/05/22 05:26:13;;;;;;;10.60;3.40;;;;;;;12.16;57.32;98602.21;106165;1274;110650;-67
2022/05/22 05:28:41;;;;;;;7.90;3.10;;;;;;;12.19;57.12;98599.77;106130;1274;96541;-66
2022/05/22 05:31:09;;;;;;;9.90;3.20;;;;;;;12.29;57.38;98598.56;106041;1274;107297;-66
2022/05/22 05:33:38;;;;;;;9.20;3.20;;;;;;;12.36;57.24;98602.21;106088;1274;96503;-65
2022/05/22 05:36:12;;;;;;;9.90;3.20;;;;;;;12.42;57.26;98597.83;106236;1274;96491;-66
2022/05/22 05:38:40;;;;;;;10.40;3.60;;;;;;;12.54;57.31;98596.80;106142;1274;110641;-65
2022/05/22 05:41:25;;;;;;;8.90;3.40;;;;;;;12.66;57.30;98599.48;106159;1274;96398;-66
2022/05/22 05:43:55;;;;;;;11.00;3.70;;;;;;;12.77;57.42;98594.59;106116;1274;108251;-65
2022/05/22 05:46:23;;;;;;;9.50;3.70;;;;;;;12.89;57.29;98593.54;106105;1274;96641;-65
2022/05/22 05:48:52;;;;;;;10.20;3.00;;;;;;;12.97;57.23;98593.89;106079;1274;96592;-65
2022/05/22 05:51:22;;;;;;;8.00;2.90;;;;;;;12.96;57.35;98594.33;106111;1274;109651;-66
2022/05/22 05:53:51;;;;;;;6.40;2.70;;;;;;;12.92;57.47;98594.95;106045;1274;96610;-65
2022/05/22 05:56:19;;;;;;;5.70;2.90;;;;;;;12.87;57.70;98594.90;106029;1274;108379;-66
2022/05/22 05:58:54;;;;;;;9.10;3.30;;;;;;;12.77;57.67;98596.21;105999;1274;96495;-66
2022/05/22 06:01:24;;;;;;;11.80;3.30;;;;;;;12.70;57.37;98597.51;106076;1272;96631;-66
2022/05/22 06:03:55;;;;;;;10.90;3.10;;;;;;;12.69;57.54;98596.88;106100;1274;110627;-65
2022/05/22 06:06:23;;;;;;;9.40;2.90;;;;;;;12.69;57.58;98598.10;106157;1274;96628;-66
2022/05/22 06:08:52;;;;;;;8.00;3.00;;;;;;;12.72;57.63;98597.17;106129;1274;108353;-68
2022/05/22 06:11:20;;;;;;;8.30;3.30;;;;;;;12.73;57.69;98598.50;106126;1274;96542;-66
2022/05/22 06:13:56;;;;;;;;;;;;;;;12.72;57.82;98597.55;106190;1274;96509;-67
2022/05/22 06:16:26;;;;;;;9.50;3.20;;;;;;;12.71;57.85;98605.43;106186;1272;110094;-66
2022/05/22 06:18:55;;;;;;;8.10;3.40;;;;;;;12.71;57.69;98599.05;106194;1274;96627;-66
2022/05/22 06:21:24;;;;;;;5.40;2.80;;;;;;;12.76;57.78;98600.67;106145;1274;108388;-67
2022/05/22 06:23:52;;;;;;;8.40;3.40;;;;;;;12.91;57.84;98594.02;106126;1274;96578;-67
2022/05/22 06:26:22;;;;;;;12.80;3.40;;;;;;;13.01;57.89;98594.20;106055;1274;96596;-66
2022/05/22 06:28:53;;;;;;;12.50;3.10;;;;;;;13.03;57.95;98594.59;106097;1274;111588;-66
2022/05/22 06:31:24;;;;;;;9.70;3.30;;;;;;;13.07;57.93;98591.91;106168;1274;96634;-65
2022/05/22 06:33:53;;;;;;;9.10;3.30;;;;;;;13.08;57.81;98593.61;106082;1274;108437;-66
2022/05/22 06:36:23;;;;;;;9.20;2.80;;;;;;;13.05;57.98;98594.95;105949;1274;96612;-68
2022/05/22 06:41:40;;;;;;;8.20;3.10;;;;;;;13.09;58.13;98588.10;106049;1274;111898;-66
2022/05/22 06:44:08;;;;;;;9.70;3.60;;;;;;;13.13;57.76;98585.20;106069;1274;94974;-65
2022/05/22 06:46:36;;;;;;;11.80;3.50;;;;;;;13.17;57.88;98577.65;106069;1274;107724;-65
2022/05/22 06:49:04;;;;;;;10.30;3.50;;;;;;;13.39;57.80;98567.44;106093;1273;96641;-66
2022/05/22 06:51:32;;;;;;;9.60;3.40;;;;;;;13.67;57.83;98568.33;106189;1274;95082;-65
2022/05/22 06:54:00;;;;;;;9.20;3.30;;;;;;;13.81;57.92;98567.51;106125;1274;110609;-65
2022/05/22 06:56:30;;;;;;;14.00;3.50;;;;;;;13.93;58.06;98566.05;106101;1272;96513;-68
2022/05/22 06:59:02;;;;;;;12.10;3.50;;;;;;;14.40;57.71;98567.09;106047;1274;107692;-66
2022/05/22 07:01:30;;;;;;;5.60;2.80;;;;;;;14.76;57.51;98563.69;106151;1274;96626;-67
2022/05/22 07:03:59;;;;;;;10.70;3.90;;;;;;;14.75;57.72;98562.13;106000;1274;96613;-66
2022/05/22 07:06:28;;;;;;;8.20;3.80;;;;;;;14.70;57.81;98567.95;106085;1274;110700;-66
2022/05/22 07:08:56;;;;;;;10.30;4.10;;;;;;;14.66;57.73;98566.41;106128;1274;97666;-66
2022/05/22 07:11:41;;;;;;;10.20;3.50;;;;;;;14.61;57.71;98560.84;106160;1274;108352;-64
2022/05/22 07:14:13;;;;;;;10.30;3.70;;;;;;;14.57;57.60;98565.71;106087;1274;94534;-66
2022/05/22 07:16:42;;;;;;;;;;;;;;;14.52;57.44;98562.38;106248;1274;95615;-64
2022/05/22 07:19:15;;;;;;;12.80;4.00;;;;;;;14.71;57.32;98558.39;106099;1274;110606;-64
2022/05/22 07:21:43;;;;;;;9.10;3.90;;;;;;;15.29;57.09;98557.38;106118;1273;96357;-65
2022/05/22 07:24:15;;;;;;;12.30;3.50;;;;;;;15.44;57.25;98563.61;106142;1274;108400;-66
2022/05/22 07:26:43;;;;;;;8.60;3.30;;;;;;;15.45;57.15;98552.34;106160;1274;94621;-66
2022/05/22 07:29:12;;;;;;;8.40;3.80;;;;;;;15.45;57.26;98549.13;106208;1274;96592;-68
2022/05/22 07:31:42;;;;;;;8.50;3.60;;;;;;;15.38;57.30;98553.49;106231;1274;110940;-66
2022/05/22 07:34:12;;;;;;;7.80;3.60;;;;;;;15.30;57.09;98557.67;106105;1274;96526;-66
2022/05/22 07:36:40;;;;;;;16.00;3.60;;;;;;;15.07;57.01;98559.57;106072;1274;108377;-68
2022/05/22 07:39:08;;;;;;;8.60;3.30;;;;;;;14.87;56.83;98560.46;106082;1274;96600;-67
2022/05/22 07:41:35;;;;;;;9.60;3.40;;;;;;;14.68;56.65;98561.00;106143;1274;96625;-66
2022/05/22 07:44:05;;;;;;;8.80;3.60;;;;;;;14.53;56.79;98556.05;106133;1274;110397;-66
2022/05/22 07:46:33;;;;;;;10.50;3.80;;;;;;;14.50;56.95;98560.23;106199;1274;97171;-66
2022/05/22 07:49:03;;;;;;;9.50;3.70;;;;;;;14.50;56.74;98557.39;106116;1274;108288;-65
2022/05/22 07:51:31;;;;;;;9.10;3.30;;;;;;;14.51;56.81;98562.13;106137;1274;96529;-66
2022/05/22 07:53:59;;;;;;;10.60;3.40;;;;;;;14.49;56.66;98554.10;106070;1274;94260;-67
2022/05/22 07:56:29;;;;;;;8.90;3.70;;;;;;;14.50;56.65;98554.92;106179;1274;109976;-66
2022/05/22 07:58:59;;;;;;;6.40;3.00;;;;;;;14.53;56.70;98553.55;106124;1274;96560;-67
2022/05/22 08:01:29;;;;;;;7.80;3.20;;;;;;;14.55;56.50;98562.20;106099;1274;107412;-65
2022/05/22 08:03:58;;;;;;;7.80;3.20;;;;;;;14.48;56.51;98569.22;106080;1274;96534;-65
2022/05/22 08:06:28;;;;;;;8.00;3.60;;;;;;;14.40;56.52;98571.73;106143;1272;96594;-67
2022/05/22 08:08:56;;;;;;;9.40;3.80;;;;;;;14.34;56.53;98566.84;106090;1273;110626;-68
2022/05/22 08:11:26;;;;;;;10.00;3.10;;;;;;;14.26;56.41;98569.72;106121;1274;96498;-65
2022/05/22 08:13:55;;;;;;;7.50;3.70;;;;;;;14.17;56.34;98570.05;106033;1274;108308;-68
2022/05/22 08:16:23;;;;;;;6.70;3.50;;;;;;;14.08;56.44;98568.05;106087;1274;94798;-67
2022/05/22 08:18:52;;;;;;;11.00;4.50;;;;;;;14.09;56.40;98572.90;106136;1274;95089;-67
2022/05/22 08:21:23;;;;;;;10.10;4.20;;;;;;;14.13;56.34;98566.25;106114;1274;111352;-68
2022/05/22 08:23:50;;;;;;;8.20;3.80;;;;;;;14.21;56.46;98566.98;106057;1274;96579;-67
2022/05/22 08:26:18;;;;;;;9.80;4.60;;;;;;;14.29;56.34;98567.94;106092;1274;108211;-67
2022/05/22 08:28:46;;;;;;;8.50;4.50;;;;;;;14.36;56.30;98571.75;106095;1274;96596;-68
2022/05/22 08:31:15;;;;;;;8.40;4.90;;;;;;;14.48;56.26;98564.06;106119;1274;96567;-68
2022/05/22 08:33:46;;;;;;;13.00;5.60;;;;;;;14.62;56.25;98560.05;106078;1274;109673;-67
2022/05/22 08:36:17;;;;;;;13.70;5.10;;;;;;;14.65;56.15;98561.13;106008;1274;96538;-67
2022/05/22 08:38:44;;;;;;;12.80;5.40;;;;;;;14.68;56.15;98562.30;106037;1274;107889;-67
2022/05/22 08:41:34;;;;;;;9.30;5.00;;;;;;;14.75;56.07;98557.91;105979;1274;96610;-67
2022/05/22 08:44:14;;;;;;;8.50;4.80;;;;;;;15.09;56.04;98556.19;106078;1274;98002;-68
2022/05/22 08:47:07;;;;;;;8.90;4.30;;;;;;;15.69;55.80;98563.17;106083;1273;110417;-66
2022/05/22 08:49:46;;;;;;;8.50;4.30;;;;;;;15.96;55.49;98556.20;106026;1274;96396;-66
2022/05/22 08:52:26;;;;;;;9.10;4.30;;;;;;;16.37;55.33;98562.30;106057;1273;107636;-66
2022/05/22 08:55:20;;;;;;;7.90;4.20;;;;;;;17.06;55.45;98559.52;106115;1274;96481;-67
2022/05/22 09:01:15;;;;;;;7.40;4.20;;;;;;;18.08;54.97;98549.05;106085;1274;110558;-67
2022/05/22 09:03:57;;;;;;;7.00;3.60;;;;;;;17.87;55.01;98548.44;106104;1274;96475;-67
2022/05/22 09:06:30;;;;;;;;;;;;;;;17.60;54.76;98547.48;106059;1274;108231;-69
2022/05/22 09:08:58;;;;;;;14.20;5.50;;;;;;;17.30;54.47;98536.36;106035;1274;96488;-67
2022/05/22 09:11:49;;;;;;;6.50;3.90;;;;;;;17.24;54.54;98541.50;106046;1273;96504;-67
2022/05/22 09:14:22;;;;;;;9.00;4.10;;;;;;;17.17;54.42;98547.65;106070;1274;110190;-67
2022/05/22 09:17:15;;;;;;;9.60;4.20;;;;;;;16.95;54.23;98537.10;106107;1274;96538;-68
2022/05/22 09:19:47;;;;;;;9.80;4.20;;;;;;;16.74;54.10;98537.86;106056;1274;107736;-66
2022/05/22 09:22:41;;;;;;;7.90;4.60;;;;;;;16.62;53.84;98550.43;106044;1274;96626;-67
2022/05/22 09:25:28;;;;;;;9.60;4.30;;;;;;;16.35;53.52;98553.05;106141;1274;96642;-66
2022/05/22 09:28:17;;;;;;;10.10;4.70;;;;;;;16.19;53.64;98549.31;106043;1274;109909;-67
2022/05/22 09:30:52;;;;;;;7.80;4.50;;;;;;;16.12;53.67;98545.82;106086;1274;96567;-67
2022/05/22 09:33:52;;;;;;;9.10;4.00;;;;;;;16.15;53.57;98545.32;106004;1273;108397;-67
2022/05/22 09:36:32;;;;;;;5.60;3.20;;;;;;;16.12;53.34;98541.33;106133;1274;96525;-66
2022/05/22 09:39:28;;;;;;;7.60;3.40;;;;;;;16.18;53.08;98545.11;106129;1274;96535;-65
2022/05/22 09:42:20;;;;;;;9.90;3.00;;;;;;;16.30;52.78;98550.37;105973;1274;110688;-66
2022/05/22 09:44:51;;;;;;;5.90;3.30;;;;;;;16.36;52.70;98549.17;105974;1274;96524;-67
2022/05/22 09:47:57;;;;;;;7.80;3.40;;;;;;;16.47;52.44;98550.02;105982;1274;108384;-67
2022/05/22 09:50:58;;;;;;;4.70;2.00;;;;;;;16.49;52.58;98547.98;105935;1273;94936;-66
2022/05/22 09:53:50;;;;;;;5.80;2.00;;;;;;;16.46;52.48;98549.36;106002;1274;96516;-66
2022/05/22 09:57:00;;;;;;;7.20;1.60;;;;;;;16.34;52.27;98546.71;106124;1273;110606;-70
2022/05/22 09:59:33;;;;;;;3.20;1.90;;;;;;;16.27;52.38;98542.77;106079;1274;96536;-67
2022/05/22 10:02:17;;;;;;;2.60;1.40;;;;;;;16.27;52.19;98550.55;106012;1274;107585;-69
2022/05/22 10:05:21;;;;;;;7.80;1.90;;;;;;;16.25;52.09;98551.82;105958;1274;96599;-70
2022/05/22 10:07:56;;;;;;;3.80;1.80;;;;;;;16.21;52.06;98550.56;106133;1274;96600;-67
2022/05/22 10:10:37;;;;;;;4.20;2.40;;;;;;;16.24;52.10;98552.95;105996;1273;110452;-67
2022/05/22 10:13:12;;;;;;;2.50;1.70;;;;;;;16.36;52.07;98543.80;105977;1274;94692;-70
2022/05/22 10:16:02;;;;;;;3.20;1.50;;;;;;;16.45;51.77;98539.48;105987;1274;106590;-68
2022/05/22 10:19:02;;;;;;;5.50;1.90;;;;;;;16.51;51.74;98544.36;105974;1274;95016;-67
2022/05/22 10:21:42;;;;;;;6.60;2.20;;;;;;;16.54;51.62;98540.17;106197;1274;94992;-66
2022/05/22 10:24:19;;;;;;;6.20;1.90;;;;;;;16.55;51.40;98537.27;105936;1274;110577;-68
2022/05/22 10:27:08;;;;;;;4.60;1.50;;;;;;;16.50;51.30;98535.00;106060;1273;96573;-67
2022/05/22 10:29:50;;;;;;;5.50;2.00;;;;;;;16.46;51.21;98543.54;105952;1274;108395;-67
2022/05/22 10:32:25;;;;;;;4.70;1.70;;;;;;;16.41;50.86;98536.71;106118;1274;96572;-66
2022/05/22 10:35:09;;;;;;;4.10;1.90;;;;;;;16.34;50.93;98536.00;106263;1274;96518;-66
2022/05/22 10:37:47;;;;;;;5.50;1.70;;;;;;;16.39;50.75;98541.02;106115;1273;111003;-65
2022/05/22 10:40:22;;;;;;;6.70;1.70;;;;;;;16.54;50.78;98528.40;106096;1273;96603;-69
2022/05/22 10:42:55;;;;;;;4.60;1.80;;;;;;;16.68;50.75;98525.42;106178;1274;107816;-66
2022/05/22 10:45:34;;;;;;;2.60;1.50;;;;;;;16.81;50.79;98524.80;106125;1274;96635;-68
2022/05/22 10:48:11;;;;;;;4.70;1.70;;;;;;;16.94;50.49;98533.23;106092;1274;96545;-68
2022/05/22 10:51:11;;;;;;;4.10;1.80;;;;;;;17.03;50.44;98532.63;106080;1273;112778;-68
2022/05/22 10:53:48;;;;;;;3.30;1.60;;;;;;;17.16;50.60;98529.16;106070;1274;94339;-66
2022/05/22 10:56:24;;;;;;;2.50;1.60;;;;;;;17.20;50.41;98524.94;106160;1274;106549;-66
2022/05/22 10:58:56;;;;;;;5.40;1.70;;;;;;;17.18;49.93;98529.30;106034;1274;94909;-67
2022/05/22 11:01:34;;;;;;;2.90;1.50;;;;;;;17.08;49.63;98542.20;106158;1273;94285;-66
2022/05/22 11:04:07;;;;;;;8.10;2.00;;;;;;;16.93;49.80;98534.58;106118;1274;110085;-66
2022/05/22 11:06:40;;;;;;;4.10;1.30;;;;;;;16.90;49.78;98532.11;106194;1273;96655;-66
2022/05/22 11:09:08;;;;;;;3.30;1.80;;;;;;;16.85;49.77;98531.17;106126;1273;108255;-66
2022/05/22 11:11:39;;;;;;;3.20;1.40;;;;;;;16.85;49.50;98533.88;106053;1274;96603;-66
2022/05/22 11:14:14;;;;;;;3.80;1.50;;;;;;;16.88;49.67;98527.98;106024;1274;96508;-65
2022/05/22 11:16:44;;;;;;;3.60;1.30;;;;;;;16.93;49.50;98523.44;106038;1274;110101;-65
2022/05/22 11:19:25;;;;;;;3.80;1.60;;;;;;;16.95;49.48;98528.28;106080;1274;96522;-67
2022/05/22 11:22:35;;;;;;;2.00;1.00;;;;;;;16.98;49.65;98526.23;106011;1274;107725;-67
2022/05/22 11:25:21;;;;;;;3.90;1.20;;;;;;;17.07;49.08;98532.36;106077;1274;96623;-65
2022/05/22 11:27:53;;;;;;;3.60;1.30;;;;;;;17.05;49.21;98529.23;106333;1274;96603;-66
2022/05/22 11:30:31;;;;;;;4.40;1.10;;;;;;;17.02;49.19;98532.22;106105;1274;111476;-65
2022/05/22 11:33:12;;;;;;;3.20;1.30;;;;;;;16.98;48.99;98535.90;106225;1272;96428;-66
2022/05/22 11:36:20;;;;;;;2.00;1.20;;;;;;;16.87;48.91;98536.13;105947;1274;108353;-67
2022/05/22 11:39:25;;;;;;;2.20;1.30;;;;;;;16.75;49.09;98534.90;106198;1273;95871;-66
2022/05/22 11:42:37;;;;;;;3.60;1.30;;;;;;;16.72;49.00;98526.26;106015;1274;96102;-66
2022/05/22 11:45:07;;;;;;;1.90;1.10;;;;;;;16.75;49.00;98535.77;106213;1274;110373;-67
2022/05/22 11:48:05;;;;;;;6.40;2.10;;;;;;;16.82;48.94;98540.29;106047;1274;96529;-66
2022/05/22 11:50:49;;;;;;;5.30;1.30;;;;;;;16.87;48.77;98537.45;105990;1274;107672;-65
2022/05/22 11:53:36;;;;;;;3.50;1.50;;;;;;;16.86;48.55;98536.80;106028;1274;96539;-66
2022/05/22 11:56:16;;;;;;;5.20;1.60;;;;;;;16.86;48.15;98545.60;106019;1273;96603;-66
2022/05/22 11:58:49;;;;;;;7.00;2.00;;;;;;;16.82;48.20;98541.45;105923;1273;109023;-66
2022/05/22 12:01:28;;;;;;;6.60;1.90;;;;;;;16.81;48.27;98536.36;106056;1273;96545;-67
2022/05/22 12:04:02;;;;;;;6.20;2.50;;;;;;;16.86;48.27;98531.73;106002;1274;108318;-66
2022/05/22 12:07:11;;;;;;;5.10;2.90;;;;;;;16.87;48.24;98534.55;106132;1273;96461;-66
2022/05/22 12:09:52;;;;;;;4.50;2.70;;;;;;;16.83;48.17;98535.83;106024;1274;96612;-63